Aviation Digital Data Service (ADDS)

Output produced by METARs form (0236 UTC 03 July 2022)
found at http://www.aviationweather.gov/metar/data/
 
KILE 030156Z AUTO 13005KT 10SM CLR 33/19 A2988 RMK AO2 SLP105 T03330189
KILE 030056Z AUTO 14009KT 10SM CLR 35/18 A2986 RMK AO2 SLP097 T03500183
KILE 022356Z AUTO 16010KT 10SM CLR 36/18 A2986 RMK AO2 SLP097 T03610183 10372 20333 56012
KILE 022256Z AUTO 12011KT 10SM CLR 37/19 A2986 RMK AO2 SLP098 T03670189
KILE 022156Z AUTO 19011KT 10SM FEW070 37/19 A2988 RMK AO2 SLP104 T03670194
KILE 022056Z AUTO 14011KT 10SM CLR 37/21 A2990 RMK AO2 SLP108 T03720206 56021
KILE 021956Z AUTO VRB04G15KT 10SM CLR 36/20 A2991 RMK AO2 SLP113 T03610200
KILE 021856Z AUTO VRB03KT 10SM SCT060 SCT070 36/21 A2994 RMK AO2 SLP123 T03560206
KILE 021756Z AUTO VRB06KT 10SM CLR 35/21 A2996 RMK AO2 SLP131 T03500206 10350 20244 58006
KILE 021656Z AUTO 14006G15KT 10SM FEW060 33/22 A2997 RMK AO2 SLP135 T03330217
KILE 021556Z AUTO 21007KT 170V230 10SM CLR 32/22 A2997 RMK AO2 SLP135 T03170222
KILE 021456Z AUTO 18004KT 7SM CLR 31/23 A2998 RMK AO2 SLP138 T03060228 51010
KILE 021421Z AUTO 19008KT 10SM FEW001 29/23 A2998 RMK AO2
KILE 021356Z AUTO 19009KT 10SM CLR 28/23 A2997 RMK AO2 SLP135 T02830233
KILE 021256Z AUTO 18006KT 10SM CLR 26/23 A2996 RMK AO2 SLP134 T02610233
KILE 021156Z AUTO 17006KT 10SM CLR 24/23 A2995 RMK AO2 SLP130 T02440233 10272 20244 53004
KILE 021056Z AUTO 16006KT 10SM CLR 25/23 A2994 RMK AO2 SLP126 T02500228
KILE 020956Z AUTO 14005KT 10SM CLR 25/23 A2994 RMK AO2 SLP124 T02500228
KILE 020856Z AUTO 17006KT 10SM CLR 26/23 A2994 RMK AO2 SLP124 T02560228 58001
KILE 020756Z AUTO 15006KT 10SM CLR 26/23 A2994 RMK AO2 SLP126 T02610228
KILE 020656Z AUTO 15008KT 10SM CLR 27/23 A2994 RMK AO2 SLP127 T02670228
KILE 020556Z AUTO 14008KT 10SM CLR 27/23 A2994 RMK AO2 SLP125 T02720228 10344 20272 403500222 50012
KILE 020456Z AUTO 13005KT 10SM CLR 28/22 A2994 RMK AO2 SLP127 T02830222
KILE 020356Z AUTO 11009KT 10SM CLR 29/22 A2993 RMK AO2 SLP122 T02890217
KILE 020256Z AUTO 11007KT 10SM CLR 30/21 A2991 RMK AO2 SLP114 T03000206 53009